createdAt,value
2023-04-13T00:00:55.826Z,10.78
2023-04-13T00:01:56.158Z,10.76
2023-04-13T00:02:56.496Z,10.76
2023-04-13T00:03:56.727Z,10.76
2023-04-13T00:04:56.935Z,10.74
2023-04-13T00:05:57.202Z,10.74
2023-04-13T00:06:57.499Z,10.73
2023-04-13T00:07:57.821Z,10.71
2023-04-13T00:08:58.116Z,10.70
2023-04-13T00:09:58.452Z,10.68
2023-04-13T00:10:58.766Z,10.70
2023-04-13T00:11:59.102Z,10.70
2023-04-13T00:12:59.411Z,10.70
2023-04-13T00:13:59.876Z,10.68
2023-04-13T00:14:59.997Z,10.68
2023-04-13T00:16:00.330Z,10.68
2023-04-13T00:17:00.703Z,10.68
2023-04-13T00:18:00.995Z,10.68
2023-04-13T00:19:01.182Z,10.70
2023-04-13T00:20:01.519Z,10.68
2023-04-13T00:21:01.829Z,10.70
2023-04-13T00:22:02.145Z,10.66
2023-04-13T00:23:02.465Z,10.67
2023-04-13T00:24:02.826Z,10.64
2023-04-13T00:25:03.129Z,10.63
2023-04-13T00:26:03.471Z,10.59
2023-04-13T00:27:03.823Z,10.59
2023-04-13T00:28:04.124Z,10.59
2023-04-13T00:29:04.456Z,10.55
2023-04-13T00:30:04.784Z,10.55
2023-04-13T00:31:05.077Z,10.55
2023-04-13T00:32:05.368Z,10.56
2023-04-13T00:33:05.740Z,10.59
2023-04-13T00:34:05.943Z,10.59
2023-04-13T00:35:06.240Z,10.60
2023-04-13T00:36:06.558Z,10.61
2023-04-13T00:37:06.889Z,10.61
2023-04-13T00:38:07.218Z,10.61
2023-04-13T00:39:07.530Z,10.64
2023-04-13T00:40:07.873Z,10.63
2023-04-13T00:41:08.142Z,10.64
2023-04-13T00:42:08.503Z,10.66
2023-04-13T00:43:08.844Z,10.66
2023-04-13T00:44:09.165Z,10.63
2023-04-13T00:45:09.504Z,10.60
2023-04-13T00:46:09.823Z,10.60
2023-04-13T00:47:10.117Z,10.60
2023-04-13T00:48:10.430Z,10.60
2023-04-13T00:49:10.738Z,10.59
2023-04-13T00:50:11.052Z,10.60
2023-04-13T00:51:11.422Z,10.60
2023-04-13T00:52:11.635Z,10.59
2023-04-13T00:53:11.946Z,10.60
2023-04-13T00:54:12.262Z,10.59
2023-04-13T00:55:12.648Z,10.59
2023-04-13T00:56:12.845Z,10.59
2023-04-13T00:57:13.172Z,10.56
2023-04-13T00:58:13.726Z,10.56
2023-04-13T00:59:13.724Z,10.59
2023-04-13T01:00:14.081Z,10.59
2023-04-13T01:01:14.315Z,10.59
2023-04-13T01:02:14.691Z,10.59
2023-04-13T01:03:14.973Z,10.59
2023-04-13T01:04:15.123Z,10.56
2023-04-13T01:05:15.433Z,10.56
2023-04-13T01:06:15.709Z,10.56
2023-04-13T01:07:16.039Z,10.56
2023-04-13T01:08:16.357Z,10.56
2023-04-13T01:09:16.673Z,10.60
2023-04-13T01:10:17.008Z,10.60
2023-04-13T01:11:17.325Z,10.61
2023-04-13T01:12:17.665Z,10.61
2023-04-13T01:13:17.972Z,10.63
2023-04-13T01:14:18.265Z,10.61
2023-04-13T01:15:18.592Z,10.61
2023-04-13T01:16:18.980Z,10.60
2023-04-13T01:17:19.196Z,10.56
2023-04-13T01:18:19.488Z,10.56
2023-04-13T01:19:19.793Z,10.55
2023-04-13T01:20:20.101Z,10.52
2023-04-13T01:21:20.428Z,10.51
2023-04-13T01:22:20.754Z,10.52
2023-04-13T01:23:21.074Z,10.48
2023-04-13T01:24:21.353Z,10.47
2023-04-13T01:25:21.674Z,10.47
2023-04-13T01:26:21.981Z,10.45
2023-04-13T01:27:22.359Z,10.44
2023-04-13T01:28:22.636Z,10.44
2023-04-13T01:29:22.928Z,10.44
2023-04-13T01:30:23.242Z,10.45
2023-04-13T01:31:23.589Z,10.44
2023-04-13T01:32:23.855Z,10.42
2023-04-13T01:33:24.184Z,10.45
2023-04-13T01:34:24.496Z,10.44
2023-04-13T01:35:24.823Z,10.44
2023-04-13T01:36:25.113Z,10.44
2023-04-13T01:37:25.447Z,10.42
2023-04-13T01:38:25.761Z,10.44
2023-04-13T01:39:26.097Z,10.42
2023-04-13T01:40:26.378Z,10.41
2023-04-13T01:41:26.680Z,10.40
2023-04-13T01:42:27.017Z,10.38
2023-04-13T01:43:27.299Z,10.38
2023-04-13T01:44:27.626Z,10.38
2023-04-13T01:45:27.966Z,10.41
2023-04-13T01:46:28.285Z,10.41
2023-04-13T01:47:28.613Z,10.44
2023-04-13T01:48:28.910Z,10.44
2023-04-13T01:49:29.249Z,10.42
2023-04-13T01:50:29.534Z,10.41
2023-04-13T01:51:29.835Z,10.41
2023-04-13T01:52:30.179Z,10.41
2023-04-13T01:53:30.470Z,10.40
2023-04-13T01:54:30.773Z,10.36
2023-04-13T01:55:31.109Z,10.33
2023-04-13T01:56:31.420Z,10.32
2023-04-13T01:57:31.762Z,10.32
2023-04-13T01:58:32.044Z,10.29
2023-04-13T01:59:32.368Z,10.29
2023-04-13T02:00:32.688Z,10.27
2023-04-13T02:01:33.030Z,10.26
2023-04-13T02:02:33.452Z,10.26
2023-04-13T02:03:33.801Z,10.26
2023-04-13T02:04:33.904Z,10.23
2023-04-13T02:05:34.237Z,10.25
2023-04-13T02:06:34.544Z,10.23
2023-04-13T02:07:34.859Z,10.22
2023-04-13T02:08:35.174Z,10.22
2023-04-13T02:09:35.512Z,10.22
2023-04-13T02:10:35.796Z,10.23
2023-04-13T02:11:36.113Z,10.22
2023-04-13T02:12:36.424Z,10.25
2023-04-13T02:13:36.755Z,10.25
2023-04-13T02:14:37.033Z,10.25
2023-04-13T02:15:37.375Z,10.23
2023-04-13T02:16:37.716Z,10.25
2023-04-13T02:17:38.088Z,10.23
2023-04-13T02:18:38.210Z,10.25
2023-04-13T02:19:38.531Z,10.23
2023-04-13T02:20:38.829Z,10.23
2023-04-13T02:21:39.119Z,10.26
2023-04-13T02:22:39.477Z,10.30
2023-04-13T02:23:39.758Z,10.30
2023-04-13T02:24:40.076Z,10.32
2023-04-13T02:25:40.388Z,10.30
2023-04-13T02:26:40.724Z,10.30
2023-04-13T02:27:41.060Z,10.30
2023-04-13T02:28:41.349Z,10.30
2023-04-13T02:29:41.682Z,10.30
2023-04-13T02:30:41.976Z,10.32
2023-04-13T02:31:42.308Z,10.32
2023-04-13T02:32:42.678Z,10.32
2023-04-13T02:33:42.871Z,10.32
2023-04-13T02:34:43.182Z,10.34
2023-04-13T02:35:43.503Z,10.33
2023-04-13T02:36:43.812Z,10.38
2023-04-13T02:37:44.154Z,10.36
2023-04-13T02:38:44.441Z,10.36
2023-04-13T02:39:44.746Z,10.40
2023-04-13T02:40:45.058Z,10.40
2023-04-13T02:41:45.384Z,10.38
2023-04-13T02:42:45.701Z,10.40
2023-04-13T02:43:46.053Z,10.38
2023-04-13T02:44:46.403Z,10.40
2023-04-13T02:45:46.605Z,10.40
2023-04-13T02:46:46.909Z,10.41
2023-04-13T02:47:47.313Z,10.45
2023-04-13T02:48:47.483Z,10.48
2023-04-13T02:49:47.793Z,10.51
2023-04-13T02:50:48.115Z,10.52
2023-04-13T02:51:48.408Z,10.53
2023-04-13T02:52:48.744Z,10.53
2023-04-13T02:53:49.031Z,10.53
2023-04-13T02:54:49.335Z,10.53
2023-04-13T02:55:49.636Z,10.52
2023-04-13T02:56:49.955Z,10.55
2023-04-13T02:57:50.279Z,10.59
2023-04-13T02:58:50.607Z,10.56
2023-04-13T02:59:50.928Z,10.59
2023-04-13T03:00:51.251Z,10.60
2023-04-13T03:01:51.713Z,10.59
2023-04-13T03:02:51.977Z,10.56
2023-04-13T03:03:52.172Z,10.55
2023-04-13T03:04:52.569Z,10.56
2023-04-13T03:05:52.758Z,10.52
2023-04-13T03:06:53.086Z,10.51
2023-04-13T03:07:53.380Z,10.51
2023-04-13T03:08:53.751Z,10.47
2023-04-13T03:09:54.068Z,10.45
2023-04-13T03:10:54.375Z,10.45
2023-04-13T03:11:54.694Z,10.42
2023-04-13T03:12:55.076Z,10.42
2023-04-13T03:13:55.226Z,10.41
2023-04-13T03:14:55.519Z,10.38
2023-04-13T03:15:55.863Z,10.38
2023-04-13T03:16:56.238Z,10.34
2023-04-13T03:17:56.545Z,10.34
2023-04-13T03:18:56.840Z,10.33
2023-04-13T03:19:57.210Z,10.33
2023-04-13T03:20:57.388Z,10.30
2023-04-13T03:21:57.709Z,10.29
2023-04-13T03:22:58.020Z,10.29
2023-04-13T03:23:58.557Z,10.27
2023-04-13T03:24:58.639Z,10.26
2023-04-13T03:25:59.014Z,10.25
2023-04-13T03:26:59.317Z,10.23
2023-04-13T03:27:59.628Z,10.22
2023-04-13T03:28:59.941Z,10.20
2023-04-13T03:30:00.264Z,10.20
2023-04-13T03:31:00.603Z,10.20
2023-04-13T03:32:00.869Z,10.20
2023-04-13T03:33:01.206Z,10.20
2023-04-13T03:34:01.492Z,10.20
2023-04-13T03:35:01.774Z,10.20
2023-04-13T03:36:02.102Z,10.20
2023-04-13T03:37:02.407Z,10.18
2023-04-13T03:38:02.739Z,10.20
2023-04-13T03:39:03.078Z,10.20
2023-04-13T03:40:03.378Z,10.17
2023-04-13T03:41:03.678Z,10.17
2023-04-13T03:42:04.019Z,10.15
2023-04-13T03:43:04.325Z,10.14
2023-04-13T03:44:04.624Z,10.12
2023-04-13T03:45:04.937Z,10.15
2023-04-13T03:46:05.297Z,10.14
2023-04-13T03:47:05.598Z,10.12
2023-04-13T03:48:05.987Z,10.12
2023-04-13T03:49:06.200Z,10.12
2023-04-13T03:50:06.527Z,10.11
2023-04-13T03:51:06.878Z,10.09
2023-04-13T03:52:07.194Z,10.08
2023-04-13T03:53:07.519Z,10.09
2023-04-13T03:54:07.835Z,10.09
2023-04-13T03:55:08.201Z,10.11
2023-04-13T03:56:08.443Z,10.08
2023-04-13T03:57:08.763Z,10.08
2023-04-13T03:58:09.071Z,10.11
2023-04-13T03:59:09.384Z,10.11
2023-04-13T04:00:09.712Z,10.11
2023-04-13T04:01:10.061Z,10.11
2023-04-13T04:02:10.497Z,10.12
2023-04-13T04:03:10.761Z,10.11
2023-04-13T04:04:11.083Z,10.09
2023-04-13T04:05:11.304Z,10.09
2023-04-13T04:06:11.601Z,10.11
2023-04-13T04:07:11.925Z,10.08
2023-04-13T04:08:12.278Z,10.08
2023-04-13T04:09:12.599Z,10.07
2023-04-13T04:11:19.617Z,10.05
2023-04-13T04:12:19.880Z,10.07
2023-04-13T04:13:20.202Z,10.05
2023-04-13T04:14:20.520Z,10.07
2023-04-13T04:15:21.026Z,10.04
2023-04-13T04:16:21.174Z,10.04
2023-04-13T04:17:21.320Z,10.01
2023-04-13T04:18:21.703Z,10.01
2023-04-13T04:19:22.048Z,10.02
2023-04-13T04:20:22.257Z,10.02
2023-04-13T04:21:22.582Z,10.02
2023-04-13T04:22:22.882Z,10.02
2023-04-13T04:23:23.232Z,10.02
2023-04-13T04:24:23.765Z,10.02
2023-04-13T04:25:23.821Z,10.02
2023-04-13T04:26:24.125Z,10.01
2023-04-13T04:27:24.485Z,10.01
2023-04-13T04:28:24.687Z,10.01
2023-04-13T04:29:25.032Z,10.01
2023-04-13T04:30:25.402Z,10.01
2023-04-13T04:31:25.689Z,10.01
2023-04-13T04:32:25.860Z,10.04
2023-04-13T04:33:26.127Z,10.05
2023-04-13T04:34:26.450Z,10.07
2023-04-13T04:35:26.812Z,10.08
2023-04-13T04:36:27.174Z,10.08
2023-04-13T04:37:27.373Z,10.09
2023-04-13T04:38:27.709Z,10.11
2023-04-13T04:39:28.035Z,10.09
2023-04-13T04:40:28.389Z,10.09
2023-04-13T04:41:28.631Z,10.12
2023-04-13T04:42:28.968Z,10.12
2023-04-13T04:43:29.293Z,10.11
2023-04-13T04:44:29.660Z,10.11
2023-04-13T04:45:29.969Z,10.08
2023-04-13T04:46:30.232Z,10.07
2023-04-13T04:47:30.671Z,10.07
2023-04-13T04:48:30.899Z,10.05
2023-04-13T04:49:31.226Z,10.02
2023-04-13T04:50:31.588Z,10.01
2023-04-13T04:51:31.825Z,9.99
2023-04-13T04:52:32.166Z,9.96
2023-04-13T04:53:32.483Z,9.94
2023-04-13T04:54:32.796Z,9.91
2023-04-13T04:55:33.163Z,9.89
2023-04-13T04:56:33.463Z,9.84
2023-04-13T04:57:33.842Z,9.83
2023-04-13T04:58:34.133Z,9.78
2023-04-13T04:59:34.476Z,9.78
2023-04-13T05:00:34.816Z,9.76
2023-04-13T05:01:35.225Z,9.76
2023-04-13T05:02:35.564Z,9.79
2023-04-13T05:03:35.675Z,9.79
2023-04-13T05:04:36.029Z,9.83
2023-04-13T05:05:36.527Z,9.83
2023-04-13T05:06:36.631Z,9.86
2023-04-13T05:07:36.857Z,9.84
2023-04-13T05:08:37.075Z,9.86
2023-04-13T05:09:37.448Z,9.89
2023-04-13T05:10:37.712Z,9.90
2023-04-13T05:11:37.941Z,9.90
2023-04-13T05:12:38.176Z,9.90
2023-04-13T05:13:38.520Z,9.90
2023-04-13T05:14:38.753Z,9.90
2023-04-13T05:15:39.046Z,9.91
2023-04-13T05:16:39.348Z,9.90
2023-04-13T05:17:39.663Z,9.91
2023-04-13T05:18:39.950Z,9.93
2023-04-13T05:19:40.153Z,9.93
2023-04-13T05:20:40.388Z,9.94
2023-04-13T05:21:40.584Z,9.97
2023-04-13T05:22:40.957Z,10.01
2023-04-13T05:23:41.292Z,10.04
2023-04-13T05:24:41.521Z,10.08
2023-04-13T05:25:41.779Z,10.09
2023-04-13T05:26:41.988Z,10.11
2023-04-13T05:27:42.360Z,10.11
2023-04-13T05:28:42.590Z,10.08
2023-04-13T05:29:43.975Z,10.08
2023-04-13T05:30:43.286Z,10.07
2023-04-13T05:31:43.525Z,10.07
2023-04-13T05:32:43.866Z,10.05
2023-04-13T05:33:44.080Z,10.02
2023-04-13T05:34:44.432Z,10.01
2023-04-13T05:35:44.656Z,9.99
2023-04-13T05:36:44.922Z,9.96
2023-04-13T05:37:45.233Z,9.94
2023-04-13T05:38:45.600Z,9.93
2023-04-13T05:39:45.804Z,9.94
2023-04-13T05:40:46.202Z,9.93
2023-04-13T05:41:46.386Z,9.93
2023-04-13T05:42:46.763Z,9.93
2023-04-13T05:43:46.986Z,9.94
2023-04-13T05:44:47.337Z,9.94
2023-04-13T05:45:47.719Z,9.94
2023-04-13T05:46:47.905Z,9.96
2023-04-13T05:47:48.286Z,9.96
2023-04-13T05:48:48.615Z,9.94
2023-04-13T05:49:48.927Z,9.96
2023-04-13T05:50:49.293Z,9.96
2023-04-13T05:51:49.509Z,9.96
2023-04-13T05:52:49.861Z,9.96
2023-04-13T05:53:50.111Z,9.94
2023-04-13T05:54:50.352Z,9.93
2023-04-13T05:55:50.678Z,9.91
2023-04-13T05:56:50.909Z,9.90
2023-04-13T05:57:51.269Z,9.87
2023-04-13T05:58:51.516Z,9.83
2023-04-13T05:59:51.838Z,9.81
2023-04-13T06:00:52.070Z,9.76
2023-04-13T06:01:52.489Z,9.74
2023-04-13T06:02:52.662Z,9.71
2023-04-13T06:03:53.173Z,9.69
2023-04-13T06:04:53.353Z,9.69
2023-04-13T06:05:53.635Z,9.71
2023-04-13T06:06:53.848Z,9.74
2023-04-13T06:07:54.107Z,9.76
2023-04-13T06:08:54.448Z,9.76
2023-04-13T06:09:54.795Z,9.76
2023-04-13T06:10:55.063Z,9.78
2023-04-13T06:11:55.270Z,9.79
2023-04-13T06:12:55.617Z,9.81
2023-04-13T06:13:57.524Z,9.84
2023-04-13T06:14:56.260Z,9.87
2023-04-13T06:15:56.480Z,9.90
2023-04-13T06:16:56.762Z,9.91
2023-04-13T06:17:57.069Z,9.96
2023-04-13T06:18:57.394Z,9.99
2023-04-13T06:19:57.541Z,10.02
2023-04-13T06:20:57.792Z,10.08
2023-04-13T06:21:58.002Z,10.09
2023-04-13T06:22:58.261Z,10.14
2023-04-13T06:23:58.497Z,10.18
2023-04-13T06:24:58.725Z,10.23
2023-04-13T06:25:59.106Z,10.29
2023-04-13T06:26:59.341Z,10.32
2023-04-13T06:27:59.595Z,10.38
2023-04-13T06:29:00.093Z,10.44
2023-04-13T06:30:00.167Z,10.53
2023-04-13T06:31:00.476Z,10.61
2023-04-13T06:32:00.729Z,10.68
2023-04-13T06:33:01.000Z,10.76
2023-04-13T06:34:01.344Z,10.81
2023-04-13T06:35:01.539Z,10.84
2023-04-13T06:36:01.831Z,10.84
2023-04-13T06:37:02.042Z,10.85
2023-04-13T06:38:02.431Z,10.89
2023-04-13T06:39:02.626Z,10.92
2023-04-13T06:40:02.983Z,10.96
2023-04-13T06:41:03.389Z,10.97
2023-04-13T06:42:03.579Z,10.97
2023-04-13T06:43:03.829Z,11.00
2023-04-13T06:44:04.183Z,11.00
2023-04-13T06:45:04.550Z,10.99
2023-04-13T06:46:04.865Z,10.97
2023-04-13T06:47:05.182Z,10.96
2023-04-13T06:48:05.450Z,10.94
2023-04-13T06:49:05.679Z,10.97
2023-04-13T06:50:05.943Z,10.96
2023-04-13T06:51:06.181Z,10.96
2023-04-13T06:52:06.426Z,10.92
2023-04-13T06:53:06.665Z,10.89
2023-04-13T06:54:06.934Z,10.88
2023-04-13T06:55:07.141Z,10.85
2023-04-13T06:56:07.412Z,10.82
2023-04-13T06:57:07.650Z,10.82
2023-04-13T06:58:07.893Z,10.84
2023-04-13T06:59:08.388Z,10.85
2023-04-13T07:00:21.751Z,10.88
2023-04-13T07:01:09.877Z,10.89
2023-04-13T07:02:09.144Z,10.92
2023-04-13T07:03:09.622Z,10.96
2023-04-13T07:04:09.791Z,10.99
2023-04-13T07:05:10.014Z,11.00
2023-04-13T07:06:10.289Z,11.02
2023-04-13T07:07:10.503Z,11.02
2023-04-13T07:08:10.828Z,11.06
2023-04-13T07:09:11.170Z,11.10
2023-04-13T07:10:11.560Z,11.14
2023-04-13T07:11:11.792Z,11.15
2023-04-13T07:12:12.133Z,11.17
2023-04-13T07:13:12.490Z,11.15
2023-04-13T07:14:12.737Z,11.15
2023-04-13T07:15:12.999Z,11.15
2023-04-13T07:16:13.261Z,11.14
2023-04-13T07:17:13.617Z,11.11
2023-04-13T07:18:13.932Z,11.10
2023-04-13T07:19:14.250Z,11.07
2023-04-13T07:20:14.610Z,11.07
2023-04-13T07:21:14.870Z,11.07
2023-04-13T07:22:15.428Z,11.06
2023-04-13T07:23:15.343Z,11.07
2023-04-13T07:24:15.683Z,11.07
2023-04-13T07:25:15.945Z,11.09
2023-04-13T07:26:16.171Z,11.10
2023-04-13T07:27:16.393Z,11.09
2023-04-13T07:28:16.648Z,11.10
2023-04-13T07:29:16.900Z,11.10
2023-04-13T07:30:17.271Z,11.09
2023-04-13T07:31:17.519Z,11.09
2023-04-13T07:32:20.313Z,11.10
2023-04-13T07:33:18.227Z,11.15
2023-04-13T07:34:18.432Z,11.18
2023-04-13T07:35:18.662Z,11.21
2023-04-13T07:36:18.890Z,11.25
2023-04-13T07:37:19.214Z,11.27
2023-04-13T07:38:19.589Z,11.29
2023-04-13T07:39:19.797Z,11.29
2023-04-13T07:40:20.027Z,11.28
2023-04-13T07:41:20.366Z,11.29
2023-04-13T07:42:20.755Z,11.27
2023-04-13T07:43:20.978Z,11.27
2023-04-13T07:44:21.334Z,11.27
2023-04-13T07:45:21.546Z,11.29
2023-04-13T07:46:21.898Z,11.29
2023-04-13T07:47:22.096Z,11.25
2023-04-13T07:48:22.492Z,11.21
2023-04-13T07:49:22.760Z,11.18
2023-04-13T07:50:22.936Z,11.11
2023-04-13T07:51:23.319Z,11.07
2023-04-13T07:52:23.559Z,11.06
2023-04-13T07:53:23.879Z,11.07
2023-04-13T07:54:24.260Z,11.10
2023-04-13T07:55:24.489Z,11.14
2023-04-13T07:56:24.822Z,11.18
2023-04-13T07:57:25.191Z,11.19
2023-04-13T07:58:25.416Z,11.21
2023-04-13T07:59:25.687Z,11.19
2023-04-13T08:00:25.917Z,11.19
2023-04-13T08:01:26.256Z,11.21
2023-04-13T08:02:26.684Z,11.22
2023-04-13T08:03:27.022Z,11.21
2023-04-13T08:04:27.407Z,11.17
2023-04-13T08:05:27.541Z,11.15
2023-04-13T08:06:27.803Z,11.15
2023-04-13T08:07:28.123Z,11.15
2023-04-13T08:08:28.496Z,11.17
2023-04-13T08:09:28.708Z,11.17
2023-04-13T08:10:29.075Z,11.14
2023-04-13T08:11:29.337Z,11.11
2023-04-13T08:12:29.672Z,11.14
2023-04-13T08:13:29.919Z,11.15
2023-04-13T08:14:30.139Z,11.14
2023-04-13T08:15:30.661Z,11.15
2023-04-13T08:16:30.884Z,11.15
2023-04-13T08:17:31.112Z,11.17
2023-04-13T08:18:31.353Z,11.17
2023-04-13T08:19:31.586Z,11.18
2023-04-13T08:20:31.934Z,11.17
2023-04-13T08:21:32.294Z,11.15
2023-04-13T08:22:32.528Z,11.11
2023-04-13T08:23:32.778Z,11.10
2023-04-13T08:24:33.103Z,11.07
2023-04-13T08:25:33.342Z,11.03
2023-04-13T08:26:33.594Z,11.02
2023-04-13T08:27:33.954Z,10.99
2023-04-13T08:28:34.192Z,10.96
2023-04-13T08:29:34.416Z,10.96
2023-04-13T08:30:34.765Z,10.96
2023-04-13T08:31:35.014Z,10.97
2023-04-13T08:32:35.274Z,10.99
2023-04-13T08:33:35.491Z,11.00
2023-04-13T08:34:35.725Z,11.00
2023-04-13T08:35:35.985Z,11.00
2023-04-13T08:36:36.321Z,11.02
2023-04-13T08:37:36.572Z,11.00
2023-04-13T08:38:36.978Z,11.02
2023-04-13T08:39:37.121Z,11.03
2023-04-13T08:40:37.473Z,11.06
2023-04-13T08:41:39.251Z,11.09
2023-04-13T08:42:38.060Z,11.14
2023-04-13T08:43:38.334Z,11.15
2023-04-13T08:44:38.605Z,11.15
2023-04-13T08:45:38.910Z,11.18
2023-04-13T08:46:39.079Z,11.21
2023-04-13T08:47:39.519Z,11.24
2023-04-13T08:48:52.785Z,11.22
2023-04-13T08:49:41.047Z,11.25
2023-04-13T08:50:40.357Z,11.27
2023-04-13T08:51:40.626Z,11.29
2023-04-13T08:52:40.898Z,11.33
2023-04-13T08:53:41.199Z,11.35
2023-04-13T08:54:41.461Z,11.37
2023-04-13T08:55:41.741Z,11.40
2023-04-13T08:56:46.360Z,11.40
2023-04-13T08:57:43.286Z,11.43
2023-04-13T08:58:42.642Z,11.46
2023-04-13T08:59:42.916Z,11.55
2023-04-13T09:00:43.251Z,11.62
2023-04-13T09:01:43.630Z,11.70
2023-04-13T09:02:56.143Z,11.76
2023-04-13T09:03:45.218Z,11.83
2023-04-13T09:04:44.481Z,11.90
2023-04-13T09:05:44.684Z,11.96
2023-04-13T09:06:45.100Z,12.02
2023-04-13T09:07:45.267Z,12.07
2023-04-13T09:08:45.557Z,12.10
2023-04-13T09:09:45.892Z,12.14
2023-04-13T09:10:46.131Z,12.17
2023-04-13T09:11:48.458Z,12.16
2023-04-13T09:12:46.739Z,12.17
2023-04-13T09:13:47.075Z,12.20
2023-04-13T09:14:47.389Z,12.29
2023-04-13T09:15:47.675Z,12.32
2023-04-13T09:16:47.946Z,12.38
2023-04-13T09:17:48.285Z,12.42
2023-04-13T09:18:48.564Z,12.45
2023-04-13T09:19:49.051Z,12.46
2023-04-13T09:20:49.149Z,12.45
2023-04-13T09:21:49.435Z,12.41
2023-04-13T09:22:49.784Z,12.42
2023-04-13T09:23:50.070Z,12.45
2023-04-13T09:24:50.305Z,12.46
2023-04-13T09:25:50.600Z,12.46
2023-04-13T09:26:50.868Z,12.49
2023-04-13T09:27:51.149Z,12.53
2023-04-13T09:28:51.370Z,12.56
2023-04-13T09:29:51.635Z,12.54
2023-04-13T09:30:51.968Z,12.56
2023-04-13T09:31:52.259Z,12.56
2023-04-13T09:32:52.550Z,12.56
2023-04-13T09:33:52.781Z,12.50
2023-04-13T09:34:53.173Z,12.49
2023-04-13T09:35:53.256Z,12.47
2023-04-13T09:36:55.244Z,12.47
2023-04-13T09:37:53.762Z,12.47
2023-04-13T09:38:54.122Z,12.49
2023-04-13T09:39:54.268Z,12.50
2023-04-13T09:40:54.607Z,12.50
2023-04-13T09:41:54.824Z,12.52
2023-04-13T09:42:55.135Z,12.50
2023-04-13T09:43:55.364Z,12.49
2023-04-13T09:44:55.601Z,12.47
2023-04-13T09:45:55.937Z,12.50
2023-04-13T09:46:56.206Z,12.50
2023-04-13T09:47:56.460Z,12.52
2023-04-13T09:48:57.811Z,12.57
2023-04-13T09:49:57.053Z,12.60
2023-04-13T09:50:57.284Z,12.60
2023-04-13T09:51:57.555Z,12.65
2023-04-13T09:52:57.896Z,12.70
2023-04-13T09:53:58.231Z,12.75
2023-04-13T09:54:58.526Z,12.82
2023-04-13T09:55:58.767Z,12.83
2023-04-13T09:56:59.031Z,12.86
2023-04-13T09:57:59.335Z,12.90
2023-04-13T09:58:59.757Z,12.93
2023-04-13T09:59:59.808Z,13.00
2023-04-13T10:01:00.087Z,13.04
2023-04-13T10:02:00.486Z,13.07
2023-04-13T10:03:00.645Z,13.11
2023-04-13T10:04:01.070Z,13.12
2023-04-13T10:05:01.149Z,13.14
2023-04-13T10:06:01.508Z,13.17
2023-04-13T10:07:01.769Z,13.17
2023-04-13T10:08:01.989Z,13.17
2023-04-13T10:09:02.168Z,13.19
2023-04-13T10:10:02.494Z,13.12
2023-04-13T10:11:02.730Z,13.12
2023-04-13T10:12:03.058Z,13.14
2023-04-13T10:13:03.363Z,13.15
2023-04-13T10:14:03.619Z,13.19
2023-04-13T10:15:04.039Z,13.22
2023-04-13T10:16:04.402Z,13.23
2023-04-13T10:17:04.422Z,13.25
2023-04-13T10:18:04.753Z,13.28
2023-04-13T10:19:05.019Z,13.25
2023-04-13T10:20:05.221Z,13.25
2023-04-13T10:21:05.470Z,13.28
2023-04-13T10:22:07.548Z,13.28
2023-04-13T10:23:05.999Z,13.30
2023-04-13T10:24:11.229Z,13.28
2023-04-13T10:25:07.547Z,13.25
2023-04-13T10:26:06.853Z,13.22
2023-04-13T10:27:07.073Z,13.22
2023-04-13T10:28:07.311Z,13.19
2023-04-13T10:29:07.538Z,13.15
2023-04-13T10:30:07.779Z,13.15
2023-04-13T10:31:08.036Z,13.15
2023-04-13T10:32:08.345Z,13.14
2023-04-13T10:33:08.787Z,13.12
2023-04-13T10:34:08.730Z,13.10
2023-04-13T10:35:08.955Z,13.08
2023-04-13T10:36:09.217Z,13.11
2023-04-13T10:37:09.486Z,13.12
2023-04-13T10:38:09.757Z,13.17
2023-04-13T10:39:10.020Z,13.23
2023-04-13T10:40:10.335Z,13.32
2023-04-13T10:41:10.570Z,13.38
2023-04-13T10:42:10.839Z,13.46
2023-04-13T10:43:11.104Z,13.46
2023-04-13T10:44:11.339Z,13.44
2023-04-13T10:45:11.604Z,13.42
2023-04-13T10:46:11.847Z,13.45
2023-04-13T10:47:12.290Z,13.46
2023-04-13T10:48:12.396Z,13.51
2023-04-13T10:49:12.620Z,13.54
2023-04-13T10:50:12.863Z,13.55
2023-04-13T10:51:13.103Z,13.59
2023-04-13T10:52:13.350Z,13.64
2023-04-13T10:53:13.600Z,13.64
2023-04-13T10:54:13.888Z,13.70
2023-04-13T10:55:14.125Z,13.75
2023-04-13T10:56:14.385Z,13.78
2023-04-13T10:57:14.650Z,13.78
2023-04-13T10:58:14.930Z,13.79
2023-04-13T10:59:15.154Z,13.79
2023-04-13T11:00:15.406Z,13.84
2023-04-13T11:01:15.696Z,13.85
2023-04-13T11:02:16.024Z,13.87
2023-04-13T11:03:17.437Z,13.91
2023-04-13T11:04:18.595Z,13.89
2023-04-13T11:05:16.917Z,13.88
2023-04-13T11:06:17.145Z,13.88
2023-04-13T11:07:17.424Z,13.88
2023-04-13T11:08:17.677Z,13.88
2023-04-13T11:09:17.910Z,13.89
2023-04-13T11:10:18.151Z,13.92
2023-04-13T11:11:18.398Z,13.95
2023-04-13T11:12:18.671Z,13.88
2023-04-13T11:13:18.928Z,13.87
2023-04-13T11:14:19.359Z,13.87
2023-04-13T11:15:19.423Z,13.85
2023-04-13T11:16:19.731Z,13.81
2023-04-13T11:17:20.050Z,13.79
2023-04-13T11:18:20.175Z,13.77
2023-04-13T11:19:20.427Z,13.73
2023-04-13T11:20:20.674Z,13.71
2023-04-13T11:21:20.943Z,13.70
2023-04-13T11:22:21.178Z,13.71
2023-04-13T11:23:21.421Z,13.71
2023-04-13T11:24:21.673Z,13.70
2023-04-13T11:25:21.925Z,13.66
2023-04-13T11:26:22.197Z,13.64
2023-04-13T11:27:22.406Z,13.66
2023-04-13T11:28:22.720Z,13.67
2023-04-13T11:29:22.957Z,13.70
2023-04-13T11:30:23.189Z,13.70
2023-04-13T11:31:23.550Z,13.73
2023-04-13T11:32:23.858Z,13.78
2023-04-13T11:33:24.071Z,13.75
2023-04-13T11:34:24.307Z,13.73
2023-04-13T11:35:24.590Z,13.71
2023-04-13T11:36:24.857Z,13.73
2023-04-13T11:37:25.142Z,13.70
2023-04-13T11:38:25.345Z,13.71
2023-04-13T11:39:25.606Z,13.75
2023-04-13T11:40:25.872Z,13.77
2023-04-13T11:41:26.101Z,13.77
2023-04-13T11:42:26.380Z,13.81
2023-04-13T11:43:26.612Z,13.84
2023-04-13T11:44:26.854Z,13.88
2023-04-13T11:45:27.131Z,13.92
2023-04-13T11:46:27.484Z,13.92
2023-04-13T11:47:27.639Z,13.88
2023-04-13T11:48:27.858Z,13.82
2023-04-13T11:49:28.134Z,13.78
2023-04-13T11:50:28.395Z,13.75
2023-04-13T11:51:28.666Z,13.64
2023-04-13T11:52:28.893Z,13.55
2023-04-13T11:53:29.128Z,13.54
2023-04-13T11:54:29.383Z,13.52
2023-04-13T11:55:30.227Z,13.49
2023-04-13T11:56:29.897Z,13.46
2023-04-13T11:57:30.159Z,13.46
2023-04-13T11:58:30.794Z,13.46
2023-04-13T11:59:30.725Z,13.49
2023-04-13T12:00:30.975Z,13.48
2023-04-13T12:01:34.538Z,13.44
2023-04-13T12:02:33.893Z,13.41
2023-04-13T12:03:46.987Z,13.41
2023-04-13T12:04:33.397Z,13.41
2023-04-13T12:05:33.564Z,13.38
2023-04-13T12:06:33.022Z,13.36
2023-04-13T12:07:33.371Z,13.36
2023-04-13T12:08:33.941Z,13.36
2023-04-13T12:09:54.051Z,13.36
2023-04-13T12:11:41.566Z,13.49
2023-04-13T12:13:36.574Z,13.54
2023-04-13T12:14:52.106Z,13.54
2023-04-13T12:15:45.650Z,13.55
2023-04-13T12:17:03.152Z,13.60
2023-04-13T12:17:40.984Z,13.66
2023-04-13T12:18:37.978Z,13.66
2023-04-13T12:19:38.211Z,13.64
2023-04-13T12:20:36.935Z,13.66
2023-04-13T12:21:37.195Z,13.70
2023-04-13T12:22:49.813Z,13.70
2023-04-13T12:23:38.798Z,13.70
2023-04-13T12:24:38.559Z,13.75
2023-04-13T12:25:39.351Z,13.71
2023-04-13T12:27:38.942Z,13.67
2023-04-13T12:28:39.156Z,13.59
2023-04-13T12:29:39.494Z,13.54
2023-04-13T12:30:39.710Z,13.54
2023-04-13T12:31:40.043Z,13.48
2023-04-13T12:32:40.187Z,13.45
2023-04-13T12:33:40.458Z,13.45
2023-04-13T12:34:40.744Z,13.46
2023-04-13T12:35:40.987Z,13.42
2023-04-13T12:36:41.291Z,13.42
2023-04-13T12:37:41.527Z,13.38
2023-04-13T12:38:41.773Z,13.33
2023-04-13T12:39:42.040Z,13.36
2023-04-13T12:40:42.242Z,13.38
2023-04-13T12:41:42.475Z,13.44
2023-04-13T12:42:42.730Z,13.46
2023-04-13T12:43:42.984Z,13.51
2023-04-13T12:44:43.198Z,13.54
2023-04-13T12:45:43.448Z,13.57
2023-04-13T12:46:43.731Z,13.57
2023-04-13T12:47:43.997Z,13.59
2023-04-13T12:48:44.182Z,13.63
2023-04-13T12:49:44.570Z,13.66
2023-04-13T12:50:44.802Z,13.70
2023-04-13T12:51:45.020Z,13.78
2023-04-13T12:52:45.260Z,13.85
2023-04-13T12:53:45.490Z,13.91
2023-04-13T12:54:45.760Z,13.97
2023-04-13T12:55:46.024Z,14.06
2023-04-13T12:56:46.245Z,14.12
2023-04-13T12:57:46.517Z,14.20
2023-04-13T12:58:46.764Z,14.25
2023-04-13T12:59:47.040Z,14.29
2023-04-13T13:00:47.557Z,14.32
2023-04-13T13:01:47.549Z,14.32
2023-04-13T13:02:50.475Z,14.32
2023-04-13T13:03:49.239Z,14.28